GMU - Greenville Downtown

Pirep is a free, collaborative database of all public and private airports located within the United States. All pilots are welcome to contribute, edit, and improve any airport they have local knowledge about, no registration required.
Uploaded photos will be licensed under a CC BY-SA 4.0 license. Please only upload photos you have the rights to use.
Tags
Public
Food
Museum
METAR / TAF
Edit Tags
Camping
Lodging
Car Rental
Bicycles
Swimming
Golfing
Fishing
Hot Springs
Flying Clubs
Airpark
Upcoming Events
No upcoming events. Is anything happening here soon?
*
*
*

Where exactly on/near the airport is this event taking place?

Is there a webpage with more information for this event?

Who should be contacted for more information?

What is this event all about?

Repeat every
Description
Last updated: 2023-10-01 00:03:22 EDT
Transient Parking
Fuel Location
Landing & Tie-down Fees
Crew Car Availability
Flying Clubs
WiFi Access
Airport Statistics
Location: Greenville, SC
Elevation: 1,048ft
Sectional: Atlanta
Activation date: Sep 1937
Fuel: 100LL, A (prices)
Runway 01/19: 5,393ft
Runway 10/28: 4,000ft
Runway H1: 50ft
Runway H2: 50ft
Access: Open to the public
Current Weather — VFR
  • Weather data is strictly informational and not for flight planning purposes.
  • METAR
    2024-05-26 06:53:00 EDT
    Ceiling Wind Temperature Dewpoint Weather Visbility
    Sky clear Calm 69°F 62°F N/A 10SM
    Raw: KGMU 261053Z AUTO 00000KT 10SM CLR 21/17 A2992 RMK AO2 SLP121 T02110167
  • TAF
    2024-05-26 02:00:00 EDT – 2024-05-26 12:00:00 EDT
    Ceiling Wind Weather Visbility
    Sky clear Calm N/A 6SM
    Clouds: @ ft
    Raw: KGMU 260539Z 2606/2706 00000KT P6SM SKC FM261600 20006KT P6SM SCT045 FM261800 21007KT P6SM BKN050 PROB30 2621/2624 4SM TSRA BKN025CB FM270100 17004KT P6SM SCT210
  • TAF
    2024-05-26 12:00:00 EDT – 2024-05-26 14:00:00 EDT
    Ceiling Wind Weather Visbility
    Sky clear 200° @ 6kt N/A 6SM
    Clouds: Scattered @ 4,500ft
    Raw: KGMU 260539Z 2606/2706 00000KT P6SM SKC FM261600 20006KT P6SM SCT045 FM261800 21007KT P6SM BKN050 PROB30 2621/2624 4SM TSRA BKN025CB FM270100 17004KT P6SM SCT210
  • TAF
    2024-05-26 14:00:00 EDT – 2024-05-26 21:00:00 EDT
    Ceiling Wind Weather Visbility
    5,000ft 210° @ 7kt N/A 6SM
    Clouds: Broken @ 5,000ft
    Raw: KGMU 260539Z 2606/2706 00000KT P6SM SKC FM261600 20006KT P6SM SCT045 FM261800 21007KT P6SM BKN050 PROB30 2621/2624 4SM TSRA BKN025CB FM270100 17004KT P6SM SCT210
  • TAF
    2024-05-26 17:00:00 EDT – 2024-05-26 20:00:00 EDT
    Ceiling Wind Weather Visbility
    2,500ft ° @ kt Thunderstorm rain 4SM
    Clouds: Broken @ 2,500ft
    Raw: KGMU 260539Z 2606/2706 00000KT P6SM SKC FM261600 20006KT P6SM SCT045 FM261800 21007KT P6SM BKN050 PROB30 2621/2624 4SM TSRA BKN025CB FM270100 17004KT P6SM SCT210
  • TAF
    2024-05-26 21:00:00 EDT – 2024-05-27 02:00:00 EDT
    Ceiling Wind Weather Visbility
    Sky clear 170° @ 4kt N/A 6SM
    Clouds: Scattered @ 21,000ft
    Raw: KGMU 260539Z 2606/2706 00000KT P6SM SKC FM261600 20006KT P6SM SCT045 FM261800 21007KT P6SM BKN050 PROB30 2621/2624 4SM TSRA BKN025CB FM270100 17004KT P6SM SCT210
Click/tap to add an annotation marker to the map
Airport Webcams
No webcams added yet.
Direct links to live image URLs will be displayed inline on this page. URLs to separate webpages will be linked to.
URL:
Direct links to live image URLs will be displayed inline on this page. URLs to separate webpages will be linked to.
URL:
Remarks
  • Arpt existed prior to 1959; helipads are conditional. see airspace letter dated jan 24, 1990 for conditions.
  • Acft oper in the greenville arpt tfc area s thru e be alert for jet & conventional tfc des on the greenville-spartanburg loc course.
  • Acft inbd from the ssw or on ils ry 01 apch be alert for tfc 4.5 mi s operg in the donaldson field arpt tfc pat at 1800 ft or blo.
  • No overnight parking on helipads.
  • No acft permitted on twys 'c' or 'd' when acft greater than 12,500 lbs is operating on ry 10/28.
Comments
Leave a comment What was your experience like at this airport?